createdAt,value
2023-05-05T00:01:34.114Z,13.30
2023-05-05T00:04:03.987Z,13.40
2023-05-05T00:06:33.866Z,13.40
2023-05-05T00:09:03.814Z,13.40
2023-05-05T00:11:33.614Z,13.40
2023-05-05T00:14:03.366Z,13.40
2023-05-05T00:16:34.683Z,13.40
2023-05-05T00:19:04.439Z,13.50
2023-05-05T00:21:34.218Z,13.60
2023-05-05T00:24:04.005Z,13.50
2023-05-05T00:26:33.811Z,13.40
2023-05-05T00:29:03.697Z,13.40
2023-05-05T00:31:34.738Z,13.40
2023-05-05T00:34:04.443Z,13.40
2023-05-05T00:36:34.341Z,13.30
2023-05-05T00:39:04.473Z,13.30
2023-05-05T00:41:34.336Z,13.30
2023-05-05T00:44:04.165Z,13.20
2023-05-05T00:46:35.738Z,13.10
2023-05-05T00:49:05.751Z,13.10
2023-05-05T00:51:35.620Z,13.00
2023-05-05T00:54:06.413Z,13.00
2023-05-05T00:56:36.717Z,12.90
2023-05-05T00:59:06.695Z,12.90
2023-05-05T01:01:37.841Z,12.90
2023-05-05T01:04:08.027Z,12.90
2023-05-05T01:06:46.386Z,13.00
2023-05-05T01:09:24.902Z,13.00
2023-05-05T01:11:59.867Z,13.00
2023-05-05T01:14:37.738Z,13.00
2023-05-05T01:17:15.286Z,13.00
2023-05-05T01:20:00.668Z,13.00
2023-05-05T01:22:35.696Z,13.00
2023-05-05T01:25:30.397Z,13.00
2023-05-05T01:28:12.160Z,12.80
2023-05-05T01:31:07.231Z,12.70
2023-05-05T01:33:42.975Z,12.70
2023-05-05T01:36:23.502Z,12.60
2023-05-05T01:38:58.044Z,12.50
2023-05-05T01:41:31.472Z,12.40
2023-05-05T01:44:05.456Z,12.30
2023-05-05T01:46:37.219Z,12.30
2023-05-05T01:49:09.593Z,12.20
2023-05-05T01:51:39.879Z,12.30
2023-05-05T01:54:11.733Z,12.30
2023-05-05T01:56:44.075Z,12.30
2023-05-05T01:59:14.614Z,12.30
2023-05-05T02:01:47.179Z,12.30
2023-05-05T02:04:18.629Z,12.30
2023-05-05T02:06:51.573Z,12.30
2023-05-05T02:09:21.820Z,12.30
2023-05-05T02:11:52.301Z,12.20
2023-05-05T02:14:24.131Z,12.30
2023-05-05T02:16:55.442Z,12.30
2023-05-05T02:19:28.686Z,12.30
2023-05-05T02:21:58.262Z,12.30
2023-05-05T02:24:28.568Z,12.30
2023-05-05T02:27:00.750Z,12.30
2023-05-05T02:29:33.676Z,12.20
2023-05-05T02:32:06.102Z,12.20
2023-05-05T02:34:40.693Z,12.20
2023-05-05T02:37:11.890Z,12.10
2023-05-05T02:39:45.934Z,12.10
2023-05-05T02:42:20.726Z,12.10
2023-05-05T02:44:51.773Z,12.10
2023-05-05T02:47:21.824Z,12.10
2023-05-05T02:49:52.653Z,12.00
2023-05-05T02:52:22.409Z,11.90
2023-05-05T02:54:52.336Z,11.90
2023-05-05T02:57:27.556Z,11.90
2023-05-05T03:00:06.950Z,11.90
2023-05-05T03:02:45.662Z,11.90
2023-05-05T03:05:22.156Z,11.80
2023-05-05T03:08:00.781Z,11.80
2023-05-05T03:10:35.989Z,11.80
2023-05-05T03:13:08.413Z,11.90
2023-05-05T03:15:43.218Z,11.90
2023-05-05T03:18:15.496Z,12.00
2023-05-05T03:20:46.988Z,11.90
2023-05-05T03:23:18.313Z,11.80
2023-05-05T03:25:49.299Z,11.70
2023-05-05T03:28:19.529Z,11.70
2023-05-05T03:30:49.410Z,11.50
2023-05-05T03:33:19.519Z,11.40
2023-05-05T03:35:50.399Z,11.30
2023-05-05T03:38:19.973Z,11.30
2023-05-05T03:40:49.695Z,11.30
2023-05-05T03:43:19.574Z,11.40
2023-05-05T03:45:50.516Z,11.20
2023-05-05T03:48:20.079Z,11.30
2023-05-05T03:50:51.539Z,11.30
2023-05-05T03:53:21.313Z,11.20
2023-05-05T03:55:52.307Z,11.10
2023-05-05T03:58:22.096Z,11.10
2023-05-05T04:00:51.864Z,11.10
2023-05-05T04:03:21.796Z,11.10
2023-05-05T04:05:52.731Z,11.20
2023-05-05T04:08:22.430Z,11.30
2023-05-05T04:10:52.089Z,11.50
2023-05-05T04:13:21.932Z,11.60
2023-05-05T04:15:51.943Z,11.70
2023-05-05T04:18:21.748Z,11.80
2023-05-05T04:20:50.941Z,11.80
2023-05-05T04:23:20.663Z,11.90
2023-05-05T04:25:50.989Z,12.00
2023-05-05T04:28:21.961Z,12.00
2023-05-05T04:30:51.825Z,12.00
2023-05-05T04:33:21.729Z,12.00
2023-05-05T04:35:50.962Z,12.00
2023-05-05T04:38:20.995Z,11.90
2023-05-05T04:40:50.770Z,11.90
2023-05-05T04:43:20.854Z,11.80
2023-05-05T04:45:56.888Z,11.70
2023-05-05T04:48:26.799Z,11.70
2023-05-05T04:50:57.688Z,11.70
2023-05-05T04:53:27.409Z,11.70
2023-05-05T04:55:57.276Z,11.90
2023-05-05T04:58:27.052Z,12.10
2023-05-05T05:00:56.828Z,12.40
2023-05-05T05:03:26.668Z,13.00
2023-05-05T05:05:57.613Z,13.60
2023-05-05T05:08:27.412Z,14.00
2023-05-05T05:10:57.135Z,14.60
2023-05-05T05:13:27.102Z,15.50
2023-05-05T05:15:56.978Z,16.10
2023-05-05T05:18:26.890Z,16.70
2023-05-05T05:20:57.879Z,16.80
2023-05-05T05:23:27.617Z,16.20
2023-05-05T05:25:57.498Z,15.90
2023-05-05T05:28:27.766Z,16.30
2023-05-05T05:30:57.334Z,17.00
2023-05-05T05:33:26.869Z,17.20
2023-05-05T05:35:57.943Z,17.70
2023-05-05T05:38:27.679Z,18.40
2023-05-05T05:40:57.461Z,18.80
2023-05-05T05:43:27.186Z,18.90
2023-05-05T05:45:56.978Z,17.90
2023-05-05T05:48:28.510Z,16.90
2023-05-05T05:50:59.779Z,15.80
2023-05-05T05:53:29.638Z,15.30
2023-05-05T05:55:59.345Z,15.60
2023-05-05T05:58:29.166Z,16.20
2023-05-05T06:00:59.729Z,16.90
2023-05-05T06:03:29.264Z,17.60
2023-05-05T06:06:00.398Z,18.10
2023-05-05T06:08:30.141Z,18.30
2023-05-05T06:11:00.451Z,18.80
2023-05-05T06:13:30.264Z,18.70
2023-05-05T06:16:00.079Z,18.70
2023-05-05T06:18:29.653Z,19.40
2023-05-05T06:21:00.852Z,19.20
2023-05-05T06:23:30.642Z,19.80
2023-05-05T06:26:00.431Z,18.70
2023-05-05T06:28:30.376Z,18.90
2023-05-05T06:30:59.972Z,19.70
2023-05-05T06:33:29.696Z,20.10
2023-05-05T06:36:00.974Z,20.30
2023-05-05T06:38:30.696Z,20.50
2023-05-05T06:41:00.492Z,20.60
2023-05-05T06:43:31.626Z,20.40
2023-05-05T06:46:01.399Z,19.80
2023-05-05T06:48:31.178Z,19.80
2023-05-05T06:51:02.941Z,20.00
2023-05-05T06:53:32.515Z,19.90
2023-05-05T06:56:02.385Z,20.10
2023-05-05T06:58:32.536Z,19.90
2023-05-05T07:01:02.111Z,19.70
2023-05-05T07:03:32.211Z,19.30
2023-05-05T07:06:03.573Z,19.10
2023-05-05T07:08:33.133Z,18.90
2023-05-05T07:11:03.009Z,18.90
2023-05-05T07:13:33.141Z,18.80
2023-05-05T07:16:03.064Z,19.20
2023-05-05T07:18:32.842Z,19.40
2023-05-05T07:21:05.733Z,19.20
2023-05-05T07:23:37.313Z,19.30
2023-05-05T07:26:07.385Z,19.60
2023-05-05T07:28:37.936Z,19.90
2023-05-05T07:31:07.469Z,20.00
2023-05-05T07:33:37.230Z,20.20
2023-05-05T07:36:08.653Z,20.40
2023-05-05T07:38:38.381Z,20.50
2023-05-05T07:41:08.084Z,20.70
2023-05-05T07:43:39.404Z,20.10
2023-05-05T07:46:09.565Z,19.60
2023-05-05T07:48:41.660Z,19.40
2023-05-05T07:51:12.675Z,19.70
2023-05-05T07:53:42.486Z,20.00
2023-05-05T07:56:12.362Z,20.20
2023-05-05T07:58:42.256Z,19.90
2023-05-05T08:01:12.747Z,20.10
2023-05-05T08:03:42.443Z,20.10
2023-05-05T08:06:15.961Z,19.90
2023-05-05T08:08:45.823Z,20.30
2023-05-05T08:11:15.644Z,20.80
2023-05-05T08:13:45.528Z,20.60
2023-05-05T08:16:15.595Z,20.40
2023-05-05T08:18:46.207Z,20.70
2023-05-05T08:21:18.388Z,20.20
2023-05-05T08:23:47.988Z,20.50
2023-05-05T08:26:17.731Z,21.10
2023-05-05T08:28:48.577Z,21.60
2023-05-05T08:31:18.190Z,21.20
2023-05-05T08:33:47.986Z,21.50
2023-05-05T08:36:18.974Z,21.20
2023-05-05T08:38:50.720Z,21.70
2023-05-05T08:41:21.062Z,21.70
2023-05-05T08:43:51.736Z,21.50
2023-05-05T08:46:21.620Z,21.50
2023-05-05T08:48:58.851Z,21.40
2023-05-05T08:51:34.061Z,21.20
2023-05-05T08:54:07.888Z,21.50
2023-05-05T08:56:42.438Z,20.80
2023-05-05T08:59:15.148Z,20.40
2023-05-05T09:01:45.118Z,20.50
2023-05-05T09:04:14.857Z,20.40
2023-05-05T09:06:46.290Z,20.40
2023-05-05T09:09:16.808Z,20.50
2023-05-05T09:11:47.625Z,21.10
2023-05-05T09:14:17.137Z,21.20
2023-05-05T09:16:46.825Z,21.50
2023-05-05T09:19:16.743Z,21.50
2023-05-05T09:21:51.321Z,21.50
2023-05-05T09:24:21.098Z,21.40
2023-05-05T09:26:51.439Z,22.00
2023-05-05T09:29:22.228Z,22.10
2023-05-05T09:32:08.706Z,22.40
2023-05-05T09:34:39.030Z,22.20
2023-05-05T09:37:10.286Z,21.80
2023-05-05T09:39:54.072Z,21.70
2023-05-05T09:42:23.630Z,21.60
2023-05-05T09:44:53.348Z,22.30
2023-05-05T09:47:34.959Z,22.60
2023-05-05T09:50:06.576Z,23.10
2023-05-05T09:52:38.167Z,22.90
2023-05-05T09:55:18.080Z,22.60
2023-05-05T09:57:48.197Z,22.70
2023-05-05T10:00:18.432Z,23.40
2023-05-05T10:02:48.275Z,23.60
2023-05-05T10:05:19.333Z,23.70
2023-05-05T10:07:52.064Z,24.40
2023-05-05T10:10:21.690Z,24.80
2023-05-05T10:12:53.285Z,24.50
2023-05-05T10:15:23.077Z,25.10
2023-05-05T10:18:06.779Z,25.30
2023-05-05T10:20:39.572Z,25.50
2023-05-05T10:23:11.925Z,25.30
2023-05-05T10:25:50.204Z,24.80
2023-05-05T10:28:24.481Z,24.30
2023-05-05T10:30:57.765Z,24.00
2023-05-05T10:33:32.598Z,23.60
2023-05-05T10:36:06.517Z,23.00
2023-05-05T10:38:39.270Z,23.60
2023-05-05T10:41:11.301Z,24.00
2023-05-05T10:43:41.743Z,24.50
2023-05-05T10:46:11.995Z,24.10
2023-05-05T10:48:48.433Z,23.40
2023-05-05T10:51:39.540Z,23.20
2023-05-05T10:54:17.429Z,23.20
2023-05-05T10:56:47.947Z,23.40
2023-05-05T10:59:43.659Z,23.70
2023-05-05T11:02:28.028Z,24.40
2023-05-05T11:05:10.708Z,24.60
2023-05-05T11:07:41.123Z,24.80
2023-05-05T11:10:13.503Z,24.30
2023-05-05T11:13:18.894Z,24.00
2023-05-05T11:15:48.677Z,24.10
2023-05-05T11:18:35.678Z,24.30
2023-05-05T11:21:17.698Z,24.50
2023-05-05T11:23:50.656Z,24.90
2023-05-05T11:26:36.069Z,25.00
2023-05-05T11:29:06.905Z,24.30
2023-05-05T11:31:36.562Z,24.40
2023-05-05T11:34:27.689Z,24.90
2023-05-05T11:37:01.460Z,25.20
2023-05-05T11:39:50.838Z,24.60
2023-05-05T11:42:25.496Z,24.80
2023-05-05T11:44:55.477Z,24.40
2023-05-05T11:47:34.924Z,24.50
2023-05-05T11:50:19.060Z,24.20
2023-05-05T11:52:48.814Z,24.00
2023-05-05T11:55:22.354Z,24.20
2023-05-05T11:57:51.758Z,24.50
2023-05-05T12:00:32.159Z,25.40
2023-05-05T12:03:02.342Z,25.80
2023-05-05T12:05:34.860Z,25.60
2023-05-05T12:08:06.352Z,26.00
2023-05-05T12:10:36.702Z,25.60
2023-05-05T12:13:18.340Z,25.50
2023-05-05T12:15:48.212Z,25.90
2023-05-05T12:18:24.032Z,25.80
2023-05-05T12:20:53.800Z,26.40
2023-05-05T12:23:30.079Z,25.60
2023-05-05T12:25:59.877Z,25.90
2023-05-05T12:28:45.158Z,26.00
2023-05-05T12:31:14.824Z,25.00
2023-05-05T12:33:44.952Z,24.80
2023-05-05T12:36:15.192Z,25.10
2023-05-05T12:38:44.883Z,25.00
2023-05-05T12:41:18.626Z,25.10
2023-05-05T12:43:55.121Z,25.50
2023-05-05T12:46:26.355Z,25.70
2023-05-05T12:49:07.134Z,25.70
2023-05-05T12:51:37.770Z,25.70
2023-05-05T12:54:08.578Z,25.60
2023-05-05T12:56:40.629Z,25.60
2023-05-05T12:59:13.211Z,25.60
2023-05-05T13:01:52.283Z,25.50
2023-05-05T13:04:23.227Z,25.30
2023-05-05T13:07:10.683Z,25.40
2023-05-05T13:09:40.672Z,24.60
2023-05-05T13:12:11.942Z,24.20
2023-05-05T13:14:43.000Z,24.60
2023-05-05T13:17:12.905Z,24.80
2023-05-05T13:19:45.950Z,24.40
2023-05-05T13:22:15.658Z,24.60
2023-05-05T13:24:51.890Z,24.90
2023-05-05T13:27:23.658Z,25.20
2023-05-05T13:29:54.868Z,25.70
2023-05-05T13:32:24.779Z,25.70
2023-05-05T13:34:54.647Z,25.90
2023-05-05T13:37:24.486Z,26.20
2023-05-05T13:39:57.156Z,26.50
2023-05-05T13:42:26.801Z,26.50
2023-05-05T13:44:58.267Z,26.80
2023-05-05T13:47:28.198Z,26.90
2023-05-05T13:49:57.988Z,25.70
2023-05-05T13:52:29.015Z,25.10
2023-05-05T13:55:00.635Z,25.80
2023-05-05T13:57:30.445Z,25.90
2023-05-05T14:00:01.665Z,25.90
2023-05-05T14:02:31.518Z,25.90
2023-05-05T14:05:01.341Z,25.90
2023-05-05T14:07:31.159Z,26.50
2023-05-05T14:10:00.952Z,26.80
2023-05-05T14:12:30.969Z,26.60
2023-05-05T14:15:02.633Z,26.90
2023-05-05T14:17:32.451Z,26.00
2023-05-05T14:20:02.394Z,25.70
2023-05-05T14:22:32.052Z,25.80
2023-05-05T14:25:01.851Z,26.00
2023-05-05T14:27:31.669Z,25.90
2023-05-05T14:30:02.809Z,25.60
2023-05-05T14:32:32.654Z,24.50
2023-05-05T14:35:02.544Z,24.50
2023-05-05T14:37:32.073Z,24.60
2023-05-05T14:40:03.655Z,24.60
2023-05-05T14:42:35.057Z,24.80
2023-05-05T14:45:06.819Z,24.90
2023-05-05T14:47:37.032Z,24.70
2023-05-05T14:50:09.615Z,24.40
2023-05-05T14:52:40.383Z,24.10
2023-05-05T14:55:11.317Z,24.10
2023-05-05T14:57:41.267Z,24.50
2023-05-05T15:00:13.888Z,24.40
2023-05-05T15:02:43.845Z,24.20
2023-05-05T15:05:13.730Z,24.30
2023-05-05T15:07:43.524Z,24.10
2023-05-05T15:10:13.849Z,23.70
2023-05-05T15:12:43.725Z,23.80
2023-05-05T15:15:14.990Z,23.80
2023-05-05T15:17:44.741Z,23.80
2023-05-05T15:20:14.941Z,23.50
2023-05-05T15:22:44.729Z,23.20
2023-05-05T15:25:15.706Z,23.10
2023-05-05T15:27:45.270Z,23.30
2023-05-05T15:30:18.138Z,23.10
2023-05-05T15:32:48.039Z,23.20
2023-05-05T15:35:17.836Z,23.00
2023-05-05T15:37:47.665Z,23.00
2023-05-05T15:40:17.402Z,22.80
2023-05-05T15:42:47.892Z,22.80
2023-05-05T15:45:19.212Z,22.70
2023-05-05T15:47:50.319Z,22.70
2023-05-05T15:50:20.314Z,22.60
2023-05-05T15:52:50.293Z,22.70
2023-05-05T15:55:20.246Z,22.40
2023-05-05T15:57:49.970Z,22.70
2023-05-05T16:00:21.849Z,22.70
2023-05-05T16:02:51.756Z,22.80
2023-05-05T16:05:23.070Z,22.80
2023-05-05T16:07:53.619Z,22.70
2023-05-05T16:10:23.636Z,22.60
2023-05-05T16:12:53.556Z,22.50
2023-05-05T16:15:25.069Z,22.50
2023-05-05T16:17:54.953Z,22.50
2023-05-05T16:20:24.461Z,22.20
2023-05-05T16:22:54.278Z,21.90
2023-05-05T16:25:24.093Z,21.60
2023-05-05T16:27:56.600Z,21.50
2023-05-05T16:30:27.845Z,21.40
2023-05-05T16:32:57.712Z,21.30
2023-05-05T16:35:27.942Z,21.20
2023-05-05T16:37:58.264Z,21.10
2023-05-05T16:40:27.734Z,21.00
2023-05-05T16:42:57.480Z,21.00
2023-05-05T16:45:28.559Z,20.90
2023-05-05T16:47:58.316Z,20.70
2023-05-05T16:50:27.886Z,20.60
2023-05-05T16:52:57.493Z,20.60
2023-05-05T16:55:27.231Z,20.60
2023-05-05T16:57:57.012Z,20.60
2023-05-05T17:00:27.999Z,20.60
2023-05-05T17:02:57.884Z,20.60
2023-05-05T17:05:27.831Z,20.50
2023-05-05T17:07:57.449Z,20.30
2023-05-05T17:10:27.431Z,20.10
2023-05-05T17:12:57.037Z,20.00
2023-05-05T17:15:28.148Z,19.70
2023-05-05T17:17:57.905Z,19.40
2023-05-05T17:20:27.741Z,19.40
2023-05-05T17:22:57.454Z,19.40
2023-05-05T17:25:28.725Z,19.30
2023-05-05T17:27:58.564Z,19.30
2023-05-05T17:30:29.450Z,19.40
2023-05-05T17:32:59.317Z,19.40
2023-05-05T17:35:29.640Z,19.60
2023-05-05T17:37:59.359Z,19.40
2023-05-05T17:40:28.863Z,19.40
2023-05-05T17:42:58.727Z,19.30
2023-05-05T17:45:29.940Z,19.30
2023-05-05T17:47:59.781Z,19.20
2023-05-05T17:50:29.592Z,18.90
2023-05-05T17:52:59.439Z,18.90
2023-05-05T17:55:29.220Z,19.00
2023-05-05T17:57:59.128Z,18.90
2023-05-05T18:00:30.192Z,18.90
2023-05-05T18:03:01.476Z,18.80
2023-05-05T18:05:31.436Z,18.70
2023-05-05T18:07:59.871Z,18.70
2023-05-05T18:10:29.778Z,18.50
2023-05-05T18:12:59.649Z,18.20
2023-05-05T18:15:30.982Z,18.10
2023-05-05T18:18:01.926Z,17.90
2023-05-05T18:20:31.783Z,18.00
2023-05-05T18:23:01.812Z,17.90
2023-05-05T18:25:31.398Z,18.00
2023-05-05T18:28:01.231Z,18.10
2023-05-05T18:30:33.753Z,18.00
2023-05-05T18:33:03.336Z,18.00
2023-05-05T18:35:33.181Z,18.00
2023-05-05T18:38:03.678Z,18.00
2023-05-05T18:40:33.238Z,17.60
2023-05-05T18:43:03.022Z,17.50
2023-05-05T18:45:33.959Z,17.40
2023-05-05T18:48:03.824Z,17.20
2023-05-05T18:50:33.624Z,16.90
2023-05-05T18:53:03.490Z,16.70
2023-05-05T18:55:33.401Z,16.60
2023-05-05T18:58:03.177Z,16.60
2023-05-05T19:00:34.189Z,16.80
2023-05-05T19:03:04.081Z,16.80
2023-05-05T19:05:33.667Z,16.60
2023-05-05T19:08:03.514Z,16.40
2023-05-05T19:10:33.427Z,16.60
2023-05-05T19:13:03.259Z,16.50
2023-05-05T19:15:34.376Z,16.50
2023-05-05T19:18:05.539Z,16.50
2023-05-05T19:20:36.638Z,16.60
2023-05-05T19:23:07.014Z,16.40
2023-05-05T19:25:37.619Z,16.40
2023-05-05T19:28:08.324Z,16.60
2023-05-05T19:30:39.716Z,16.70
2023-05-05T19:33:09.551Z,16.60
2023-05-05T19:35:39.215Z,16.40
2023-05-05T19:38:10.915Z,16.40
2023-05-05T19:40:40.950Z,16.40
2023-05-05T19:43:10.563Z,16.40
2023-05-05T19:45:41.769Z,16.50
2023-05-05T19:48:11.555Z,16.60
2023-05-05T19:50:41.309Z,16.70
2023-05-05T19:53:11.055Z,16.70
2023-05-05T19:55:41.124Z,16.70
2023-05-05T19:58:10.554Z,16.70
2023-05-05T20:00:41.649Z,16.70
2023-05-05T20:03:11.390Z,16.60
2023-05-05T20:05:41.027Z,16.60
2023-05-05T20:08:10.903Z,16.50
2023-05-05T20:10:40.733Z,16.50
2023-05-05T20:13:10.576Z,16.60
2023-05-05T20:15:41.790Z,16.50
2023-05-05T20:18:12.317Z,16.40
2023-05-05T20:20:42.306Z,16.20
2023-05-05T20:23:12.023Z,16.00
2023-05-05T20:25:41.881Z,15.80
2023-05-05T20:28:11.804Z,15.80
2023-05-05T20:30:42.796Z,15.70
2023-05-05T20:33:12.623Z,15.50
2023-05-05T20:35:42.370Z,15.40
2023-05-05T20:38:12.092Z,15.40
2023-05-05T20:40:41.981Z,15.50
2023-05-05T20:43:11.987Z,15.50
2023-05-05T20:45:42.874Z,15.40
2023-05-05T20:48:12.709Z,15.30
2023-05-05T20:50:42.956Z,15.30
2023-05-05T20:53:13.720Z,15.50
2023-05-05T20:55:43.510Z,15.50
2023-05-05T20:58:13.530Z,15.50
2023-05-05T21:00:44.722Z,15.10
2023-05-05T21:03:14.588Z,14.90
2023-05-05T21:05:44.757Z,14.80
2023-05-05T21:08:14.293Z,14.70
2023-05-05T21:10:43.975Z,14.80
2023-05-05T21:13:13.721Z,15.00
2023-05-05T21:15:45.085Z,15.20
2023-05-05T21:18:15.163Z,15.30
2023-05-05T21:20:44.912Z,15.40
2023-05-05T21:23:14.644Z,15.50
2023-05-05T21:25:44.366Z,15.60
2023-05-05T21:28:14.138Z,15.60
2023-05-05T21:30:48.183Z,15.70
2023-05-05T21:33:24.547Z,15.60
2023-05-05T21:35:54.315Z,15.60
2023-05-05T21:38:24.101Z,15.50
2023-05-05T21:40:59.549Z,15.30
2023-05-05T21:43:29.734Z,15.20
2023-05-05T21:46:05.650Z,15.20
2023-05-05T21:48:35.376Z,15.20
2023-05-05T21:51:05.429Z,15.20
2023-05-05T21:53:34.955Z,15.20
2023-05-05T21:56:05.251Z,15.00
2023-05-05T21:58:35.132Z,14.90
2023-05-05T22:01:06.190Z,14.70
2023-05-05T22:03:36.892Z,14.60
2023-05-05T22:06:06.666Z,14.40
2023-05-05T22:08:36.434Z,14.50
2023-05-05T22:11:06.644Z,14.50
2023-05-05T22:13:37.467Z,14.60
2023-05-05T22:16:09.387Z,14.60
2023-05-05T22:18:39.192Z,14.70
2023-05-05T22:21:08.982Z,14.70
2023-05-05T22:23:41.343Z,14.70
2023-05-05T22:26:11.382Z,14.60
2023-05-05T22:28:41.461Z,14.50
2023-05-05T22:31:12.742Z,14.50
2023-05-05T22:33:42.248Z,14.50
2023-05-05T22:36:13.038Z,14.60
2023-05-05T22:38:42.950Z,14.60
2023-05-05T22:41:12.726Z,14.60
2023-05-05T22:43:42.466Z,14.60
2023-05-05T22:46:13.605Z,14.70
2023-05-05T22:48:43.345Z,14.60
2023-05-05T22:51:13.425Z,14.70
2023-05-05T22:53:43.041Z,14.70
2023-05-05T22:56:12.847Z,14.60
2023-05-05T22:58:42.655Z,14.70
2023-05-05T23:01:13.849Z,14.60
2023-05-05T23:03:43.633Z,14.70
2023-05-05T23:06:13.429Z,14.70
2023-05-05T23:08:43.168Z,14.50
2023-05-05T23:11:12.982Z,14.50
2023-05-05T23:13:42.731Z,14.50
2023-05-05T23:16:13.972Z,14.60
2023-05-05T23:18:43.514Z,14.50
2023-05-05T23:21:13.337Z,14.50
2023-05-05T23:23:43.148Z,14.60
2023-05-05T23:26:14.256Z,14.50
2023-05-05T23:28:43.835Z,14.50
2023-05-05T23:31:15.077Z,14.30
2023-05-05T23:33:44.951Z,14.20
2023-05-05T23:36:14.779Z,14.20
2023-05-05T23:38:44.581Z,14.20
2023-05-05T23:41:14.351Z,14.20
2023-05-05T23:43:44.053Z,14.10
2023-05-05T23:46:15.215Z,14.20
2023-05-05T23:48:44.836Z,14.20
2023-05-05T23:51:14.614Z,14.20
2023-05-05T23:53:44.453Z,14.20
2023-05-05T23:56:14.238Z,14.20
2023-05-05T23:58:43.958Z,14.10
